Chelmsley Wood, United Kingdom
Current Conditions -  °F | °C
As of 5:20 AM on Thursday 27 Nov 2014 (Local Time) from EGBB Reporting Station
Drizzle Drizzle  
Wind Chill: 45°   Ceiling: 200
Heat Index: 45°   Visibility: 1.5mi
Dew Point: 45°   Wind: 0mph
Humidity: 100%   Direction: NA
Pressure: 29.62"   Gusts: NA
Location:  52.48°N, 1.74°W
Report Text: EGBB 270520Z 00000KT 2500 -DZ BR BKN002 OVC005 07/07 Q1003
Loading
Personal Weather Stations






























Interactive Weather Map New forecast layout! Learn more

10-Day Weather Forecast

Advertisements
Track Severe Weather on mobile